createdAt,value
2022-09-14T00:01:34.652Z,97404.06
2022-09-14T00:04:12.397Z,97410.41
2022-09-14T00:06:40.362Z,97407.78
2022-09-14T00:09:08.136Z,97402.72
2022-09-14T00:11:37.060Z,97409.88
2022-09-14T00:14:05.700Z,97408.56
2022-09-14T00:16:38.385Z,97395.00
2022-09-14T00:19:13.455Z,97382.28
2022-09-14T00:21:42.393Z,97378.56
2022-09-14T00:24:11.979Z,97373.28
2022-09-14T00:26:38.628Z,97364.50
2022-09-14T00:29:06.537Z,97352.56
2022-09-14T00:31:38.114Z,97361.84
2022-09-14T00:34:07.837Z,97350.16
2022-09-14T00:36:51.914Z,97351.25
2022-09-14T00:39:21.739Z,97362.13
2022-09-14T00:41:50.055Z,97365.28
2022-09-14T00:44:16.561Z,97367.97
2022-09-14T00:46:50.459Z,97355.22
2022-09-14T00:49:38.067Z,97352.56
2022-09-14T00:52:20.353Z,97352.03
2022-09-14T00:54:53.342Z,97355.22
2022-09-14T00:57:21.576Z,97362.91
2022-09-14T00:59:52.088Z,97364.78
2022-09-14T01:02:22.442Z,97337.72
2022-09-14T01:04:51.117Z,97337.16
2022-09-14T01:07:42.292Z,97341.69
2022-09-14T01:10:28.821Z,97344.34
2022-09-14T01:13:04.280Z,97334.25
2022-09-14T01:15:53.371Z,97313.56
2022-09-14T01:18:37.819Z,97308.28
2022-09-14T01:21:15.906Z,97281.97
2022-09-14T01:24:16.605Z,97284.13
2022-09-14T01:27:20.148Z,97285.44
2022-09-14T01:30:09.357Z,97283.06
2022-09-14T01:33:08.074Z,97293.94
2022-09-14T01:35:46.634Z,97298.44
2022-09-14T01:38:40.178Z,97290.47
2022-09-14T01:41:14.504Z,97304.81
2022-09-14T01:43:58.458Z,97307.97
2022-09-14T01:46:45.448Z,97311.19
2022-09-14T01:49:21.490Z,97305.88
2022-09-14T01:54:37.794Z,97301.63
2022-09-14T01:57:29.237Z,97299.78
2022-09-14T02:00:03.621Z,97293.13
2022-09-14T02:02:58.912Z,97297.63
2022-09-14T02:05:40.185Z,97286.72
2022-09-14T02:08:06.972Z,97296.28
2022-09-14T02:10:34.856Z,97284.63
2022-09-14T02:13:02.217Z,97271.63
2022-09-14T02:15:29.283Z,97276.66
2022-09-14T02:17:56.266Z,97282.47
2022-09-14T02:20:37.697Z,97278.78
2022-09-14T02:23:05.489Z,97272.41
2022-09-14T02:25:32.934Z,97274.00
2022-09-14T02:27:59.541Z,97276.13
2022-09-14T02:30:28.010Z,97280.34
2022-09-14T02:33:26.073Z,97266.06
2022-09-14T02:36:07.274Z,97264.44
2022-09-14T02:39:14.725Z,97255.41
2022-09-14T02:41:54.457Z,97240.03
2022-09-14T02:44:53.804Z,97234.50
2022-09-14T02:47:39.366Z,97235.03
2022-09-14T02:50:24.360Z,97232.09
2022-09-14T02:53:01.844Z,97205.34
2022-09-14T02:55:42.971Z,97206.66
2022-09-14T02:58:13.043Z,97196.59
2022-09-14T03:00:49.085Z,97209.84
2022-09-14T03:03:20.126Z,97207.72
2022-09-14T03:05:47.572Z,97209.31
2022-09-14T03:08:14.497Z,97205.06
2022-09-14T03:10:44.201Z,97202.94
2022-09-14T03:13:11.891Z,97208.78
2022-09-14T03:15:39.108Z,97228.41
2022-09-14T03:18:11.081Z,97241.13
2022-09-14T03:20:39.324Z,97259.94
2022-09-14T03:23:09.180Z,97267.09
2022-09-14T03:25:44.455Z,97285.66
2022-09-14T03:28:12.747Z,97289.91
2022-09-14T03:30:39.755Z,97293.88
2022-09-14T03:33:06.665Z,97306.09
2022-09-14T03:35:33.582Z,97315.88
2022-09-14T03:38:03.025Z,97304.19
2022-09-14T03:40:30.419Z,97305.00
2022-09-14T03:42:57.267Z,97308.72
2022-09-14T03:45:23.910Z,97288.84
2022-09-14T03:47:51.102Z,97274.53
2022-09-14T03:50:20.065Z,97272.41
2022-09-14T03:52:47.603Z,97263.91
2022-09-14T03:55:14.574Z,97272.69
2022-09-14T03:57:41.328Z,97254.91
2022-09-14T04:00:09.181Z,97244.84
2022-09-14T04:02:35.859Z,97240.06
2022-09-14T04:05:02.764Z,97236.91
2022-09-14T04:07:30.425Z,97220.72
2022-09-14T04:09:57.305Z,97225.22
2022-09-14T04:12:24.556Z,97192.09
2022-09-14T04:14:51.430Z,97190.22
2022-09-14T04:17:18.372Z,97219.09
2022-09-14T04:19:45.081Z,97236.31
2022-09-14T04:22:12.062Z,97251.41
2022-09-14T04:24:39.107Z,97252.72
2022-09-14T04:27:08.926Z,97239.50
2022-09-14T04:29:35.601Z,97232.09
2022-09-14T04:32:02.871Z,97221.22
2022-09-14T04:34:29.582Z,97208.53
2022-09-14T04:37:15.171Z,97208.22
2022-09-14T04:39:43.397Z,97209.56
2022-09-14T04:42:10.065Z,97213.28
2022-09-14T04:44:36.661Z,97223.84
2022-09-14T04:47:03.756Z,97183.59
2022-09-14T04:49:30.952Z,97167.44
2022-09-14T04:51:57.726Z,97178.81
2022-09-14T04:54:25.158Z,97189.16
2022-09-14T04:56:51.859Z,97210.59
2022-09-14T04:59:18.553Z,97205.56
2022-09-14T05:01:47.870Z,97213.25
2022-09-14T05:04:15.997Z,97196.03
2022-09-14T05:06:44.416Z,97179.09
2022-09-14T05:09:15.868Z,97184.88
2022-09-14T05:11:43.415Z,97192.56
2022-09-14T05:14:13.330Z,97181.19
2022-09-14T05:16:42.681Z,97193.63
2022-09-14T05:19:14.531Z,97184.63
2022-09-14T05:21:41.556Z,97175.91
2022-09-14T05:24:14.941Z,97174.56
2022-09-14T05:26:44.073Z,97172.16
2022-09-14T05:29:18.183Z,97200.78
2022-09-14T05:31:46.368Z,97186.47
2022-09-14T05:34:13.607Z,97180.66
2022-09-14T05:36:52.609Z,97157.34
2022-09-14T05:39:23.127Z,97150.19
2022-09-14T05:41:50.817Z,97148.31
2022-09-14T05:44:17.986Z,97124.19
2022-09-14T05:46:44.741Z,97124.19
2022-09-14T05:49:11.336Z,97128.66
2022-09-14T05:51:37.871Z,97138.75
2022-09-14T05:54:10.246Z,97137.66
2022-09-14T05:56:37.132Z,97135.81
2022-09-14T05:59:04.175Z,97140.31
2022-09-14T06:01:33.022Z,97127.06
2022-09-14T06:04:02.521Z,97127.59
2022-09-14T06:06:31.935Z,97105.63
2022-09-14T06:09:00.678Z,97110.13
2022-09-14T06:11:33.081Z,97119.13
2022-09-14T06:14:00.472Z,97119.66
2022-09-14T06:16:29.140Z,97099.00
2022-09-14T06:18:58.959Z,97103.75
2022-09-14T06:21:34.885Z,97103.22
2022-09-14T06:24:01.609Z,97109.03
2022-09-14T06:26:28.630Z,97094.75
2022-09-14T06:28:55.533Z,97094.75
2022-09-14T06:31:25.522Z,97093.69
2022-09-14T06:33:53.829Z,97098.78
2022-09-14T06:36:25.384Z,97093.97
2022-09-14T06:38:54.512Z,97082.31
2022-09-14T06:41:27.094Z,97100.41
2022-09-14T06:43:57.192Z,97090.84
2022-09-14T06:46:33.731Z,97082.66
2022-09-14T06:49:11.905Z,97097.22
2022-09-14T06:51:47.717Z,97090.06
2022-09-14T06:54:16.536Z,97102.25
2022-09-14T06:56:45.683Z,97111.81
2022-09-14T06:59:15.456Z,97106.75
2022-09-14T07:01:45.525Z,97099.88
2022-09-14T07:04:12.990Z,97107.03
2022-09-14T07:06:49.924Z,97110.47
2022-09-14T07:09:19.664Z,97100.66
2022-09-14T07:11:59.247Z,97112.31
2022-09-14T07:14:30.362Z,97104.91
2022-09-14T07:16:59.259Z,97107.28
2022-09-14T07:19:26.197Z,97108.88
2022-09-14T07:21:54.898Z,97111.78
2022-09-14T07:24:21.888Z,97116.56
2022-09-14T07:27:04.396Z,97111.00
2022-09-14T07:29:37.723Z,97099.88
2022-09-14T07:32:04.642Z,97108.59
2022-09-14T07:34:31.596Z,97100.91
2022-09-14T07:36:58.273Z,97092.72
2022-09-14T07:39:25.232Z,97098.53
2022-09-14T07:41:52.056Z,97101.69
2022-09-14T07:44:18.843Z,97106.47
2022-09-14T07:46:47.024Z,97113.88
2022-09-14T07:49:16.627Z,97114.41
2022-09-14T07:51:44.286Z,97107.50
2022-09-14T07:54:16.935Z,97112.25
2022-09-14T07:56:45.231Z,97117.59
2022-09-14T08:02:01.590Z,97120.22
2022-09-14T08:04:28.532Z,97106.44
2022-09-14T08:06:55.321Z,97121.03
2022-09-14T08:09:22.191Z,97123.94
2022-09-14T08:11:49.044Z,97121.00
2022-09-14T08:14:15.824Z,97121.50
2022-09-14T08:16:42.766Z,97118.34
2022-09-14T08:19:16.983Z,97130.84
2022-09-14T08:21:47.071Z,97120.78
2022-09-14T08:24:19.101Z,97116.47
2022-09-14T08:26:53.869Z,97112.47
2022-09-14T08:29:20.623Z,97124.91
2022-09-14T08:31:51.486Z,97123.28
2022-09-14T08:34:19.048Z,97123.78
2022-09-14T08:36:47.692Z,97128.81
2022-09-14T08:39:17.165Z,97123.25
2022-09-14T08:41:44.124Z,97130.13
2022-09-14T08:44:51.715Z,97121.34
2022-09-14T08:47:28.858Z,97113.88
2022-09-14T08:50:06.506Z,97115.69
2022-09-14T08:52:44.014Z,97115.34
2022-09-14T08:55:48.559Z,97118.78
2022-09-14T08:58:47.609Z,97122.97
2022-09-14T09:01:46.152Z,97125.94
2022-09-14T09:04:31.783Z,97123.53
2022-09-14T09:07:21.492Z,97133.53
2022-09-14T09:09:56.503Z,97140.97
2022-09-14T09:12:36.241Z,97122.41
2022-09-14T09:15:37.324Z,97129.50
2022-09-14T09:18:19.180Z,97131.31
2022-09-14T09:21:04.702Z,97143.53
2022-09-14T09:23:33.865Z,97141.88
2022-09-14T09:26:09.704Z,97132.00
2022-09-14T09:28:49.439Z,97136.69
2022-09-14T09:31:20.234Z,97150.84
2022-09-14T09:33:49.825Z,97155.63
2022-09-14T09:36:18.598Z,97140.00
2022-09-14T09:38:45.578Z,97156.25
2022-09-14T09:41:24.745Z,97154.50
2022-09-14T09:44:03.352Z,97167.59
2022-09-14T09:46:35.293Z,97173.72
2022-09-14T09:49:18.415Z,97174.03
2022-09-14T09:51:46.326Z,97161.38
2022-09-14T09:54:13.000Z,97183.66
2022-09-14T09:56:51.961Z,97184.75
2022-09-14T09:59:44.327Z,97193.22
2022-09-14T10:02:30.098Z,97189.81
2022-09-14T10:05:07.145Z,97192.94
2022-09-14T10:07:40.992Z,97188.97
2022-09-14T10:10:15.313Z,97198.53
2022-09-14T10:12:54.909Z,97198.53
2022-09-14T10:15:28.932Z,97185.25
2022-09-14T10:18:12.267Z,97186.81
2022-09-14T10:21:07.024Z,97183.63
2022-09-14T10:23:38.703Z,97178.53
2022-09-14T10:26:27.304Z,97159.69
2022-09-14T10:28:55.175Z,97151.88
2022-09-14T10:31:37.360Z,97157.47
2022-09-14T10:34:20.653Z,97153.50
2022-09-14T10:37:06.912Z,97145.81
2022-09-14T10:39:52.706Z,97166.81
2022-09-14T10:42:35.591Z,97169.19
2022-09-14T10:45:20.624Z,97167.81
2022-09-14T10:48:44.014Z,97169.63
2022-09-14T10:51:35.331Z,97155.66
2022-09-14T10:55:02.691Z,97148.13
2022-09-14T10:58:25.787Z,97140.00
2022-09-14T11:01:18.565Z,97148.97
2022-09-14T11:04:25.138Z,97146.09
2022-09-14T11:07:25.701Z,97143.19
2022-09-14T11:10:39.395Z,97127.25
2022-09-14T11:13:27.804Z,97127.16
2022-09-14T11:16:47.724Z,97131.38
2022-09-14T11:19:20.356Z,97121.09
2022-09-14T11:22:42.266Z,97126.09
2022-09-14T11:25:31.631Z,97141.06
2022-09-14T11:28:07.172Z,97130.25
2022-09-14T11:30:50.322Z,97135.53
2022-09-14T11:33:38.211Z,97121.94
2022-09-14T11:36:47.386Z,97117.47
2022-09-14T11:39:24.794Z,97115.28
2022-09-14T11:41:59.916Z,97118.59
2022-09-14T11:44:38.624Z,97111.69
2022-09-14T11:47:20.436Z,97095.13
2022-09-14T11:50:24.052Z,97102.09
2022-09-14T11:53:20.083Z,97096.91
2022-09-14T11:55:50.753Z,97083.56
2022-09-14T11:58:21.783Z,97089.25
2022-09-14T12:01:04.040Z,97092.41
2022-09-14T12:04:06.044Z,97091.84
2022-09-14T12:06:35.673Z,97098.31
2022-09-14T12:09:17.785Z,97091.75
2022-09-14T12:11:46.409Z,97079.66
2022-09-14T12:14:41.202Z,97079.34
2022-09-14T12:17:39.943Z,97081.88
2022-09-14T12:20:40.950Z,97085.47
2022-09-14T12:23:42.046Z,97090.47
2022-09-14T12:26:12.024Z,97088.28
2022-09-14T12:28:56.802Z,97092.09
2022-09-14T12:32:02.938Z,97079.88
2022-09-14T12:34:33.282Z,97085.91
2022-09-14T12:37:11.914Z,97081.06
2022-09-14T12:39:38.950Z,97086.38
2022-09-14T12:42:34.700Z,97098.47
2022-09-14T12:46:03.985Z,97074.88
2022-09-14T12:48:48.707Z,97090.06
2022-09-14T12:51:34.776Z,97100.41
2022-09-14T12:54:07.994Z,97118.41
2022-09-14T12:56:40.800Z,97107.59
2022-09-14T13:00:06.647Z,97094.53
2022-09-14T13:03:00.839Z,97086.72
2022-09-14T13:05:33.275Z,97090.28
2022-09-14T13:08:01.024Z,97090.09
2022-09-14T13:10:36.358Z,97074.28
2022-09-14T13:13:17.766Z,97069.81
2022-09-14T13:16:07.062Z,97077.84
2022-09-14T13:18:37.586Z,97077.50
2022-09-14T13:21:23.637Z,97068.53
2022-09-14T13:23:51.345Z,97073.00
2022-09-14T13:26:26.559Z,97067.94
2022-09-14T13:28:58.655Z,97067.56
2022-09-14T13:31:34.889Z,97069.22
2022-09-14T13:34:05.613Z,97066.75
2022-09-14T13:36:40.501Z,97061.41
2022-09-14T13:39:30.237Z,97062.22
2022-09-14T13:41:58.572Z,97068.56
2022-09-14T13:44:33.618Z,97047.41
2022-09-14T13:47:05.695Z,97056.47
2022-09-14T13:49:36.237Z,97037.03
2022-09-14T13:52:21.776Z,97047.66
2022-09-14T13:55:21.570Z,97018.00
2022-09-14T13:58:19.372Z,97022.19
2022-09-14T14:01:03.992Z,97015.91
2022-09-14T14:03:48.479Z,97018.50
2022-09-14T14:06:30.199Z,97016.13
2022-09-14T14:09:09.573Z,97020.81
2022-09-14T14:11:52.359Z,97020.22
2022-09-14T14:14:30.141Z,97009.00
2022-09-14T14:17:13.128Z,97024.59
2022-09-14T14:19:40.857Z,97016.06
2022-09-14T14:22:27.693Z,97008.13
2022-09-14T14:25:12.727Z,96998.94
2022-09-14T14:27:46.832Z,96985.84
2022-09-14T14:30:17.264Z,97003.31
2022-09-14T14:32:48.901Z,96995.44
2022-09-14T14:35:19.961Z,96984.63
2022-09-14T14:37:47.762Z,96972.81
2022-09-14T14:40:16.850Z,96975.78
2022-09-14T14:42:44.795Z,96988.28
2022-09-14T14:45:21.639Z,97018.81
2022-09-14T14:47:53.187Z,97029.91
2022-09-14T14:50:27.273Z,97055.28
2022-09-14T14:52:54.596Z,97053.50
2022-09-14T14:55:23.756Z,97088.03
2022-09-14T14:57:51.980Z,97070.94
2022-09-14T15:00:24.535Z,97041.19
2022-09-14T15:02:51.537Z,97057.59
2022-09-14T15:05:19.415Z,97020.56
2022-09-14T15:07:46.846Z,96999.03
2022-09-14T15:10:16.524Z,96997.69
2022-09-14T15:12:44.515Z,96988.50
2022-09-14T15:15:19.783Z,96986.34
2022-09-14T15:17:46.668Z,96990.88
2022-09-14T15:20:13.923Z,96996.22
2022-09-14T15:22:42.394Z,97003.59
2022-09-14T15:25:12.363Z,96987.47
2022-09-14T15:27:45.446Z,96997.03
2022-09-14T15:30:13.688Z,96990.44
2022-09-14T15:32:41.188Z,97000.56
2022-09-14T15:35:13.444Z,96997.41
2022-09-14T15:37:41.184Z,97022.38
2022-09-14T15:40:09.367Z,97014.94
2022-09-14T15:42:36.029Z,96996.59
2022-09-14T15:45:04.158Z,96993.13
2022-09-14T15:47:34.175Z,96984.91
2022-09-14T15:50:03.673Z,97000.03
2022-09-14T15:52:30.255Z,97003.78
2022-09-14T15:54:56.822Z,97015.50
2022-09-14T15:57:23.393Z,96996.34
2022-09-14T15:59:50.119Z,96987.25
2022-09-14T16:02:20.250Z,96990.94
2022-09-14T16:04:47.030Z,96986.41
2022-09-14T16:07:14.184Z,96984.50
2022-09-14T16:09:41.758Z,96977.00
2022-09-14T16:12:11.154Z,96979.38
2022-09-14T16:14:38.032Z,96981.81
2022-09-14T16:17:06.765Z,96989.19
2022-09-14T16:19:33.311Z,96989.00
2022-09-14T16:22:00.485Z,97003.56
2022-09-14T16:24:28.638Z,97001.44
2022-09-14T16:27:14.220Z,96988.22
2022-09-14T16:29:43.023Z,96982.84
2022-09-14T16:32:09.838Z,96975.94
2022-09-14T16:34:37.845Z,96966.94
2022-09-14T16:37:04.560Z,96976.19
2022-09-14T16:39:31.713Z,96974.34
2022-09-14T16:41:59.857Z,96960.78
2022-09-14T16:44:28.415Z,96967.38
2022-09-14T16:46:57.691Z,96958.66
2022-09-14T16:49:27.995Z,96952.03
2022-09-14T16:51:56.290Z,96945.13
2022-09-14T16:54:25.877Z,96947.22
2022-09-14T16:56:57.226Z,96953.09
2022-09-14T16:59:25.769Z,96967.00
2022-09-14T17:01:55.064Z,96965.16
2022-09-14T17:04:24.013Z,96965.66
2022-09-14T17:06:52.738Z,96957.50
2022-09-14T17:09:24.353Z,96957.53
2022-09-14T17:11:52.769Z,96969.22
2022-09-14T17:14:25.468Z,96964.19
2022-09-14T17:16:52.365Z,96960.81
2022-09-14T17:19:20.069Z,96964.78
2022-09-14T17:21:48.124Z,96965.59
2022-09-14T17:24:16.625Z,96965.13
2022-09-14T17:26:45.599Z,96964.91
2022-09-14T17:29:12.697Z,96958.78
2022-09-14T17:31:42.718Z,96977.09
2022-09-14T17:34:12.130Z,96989.88
2022-09-14T17:36:39.185Z,96988.56
2022-09-14T17:39:11.576Z,97002.91
2022-09-14T17:41:40.405Z,96985.69
2022-09-14T17:44:11.292Z,96994.16
2022-09-14T17:46:45.959Z,96987.03
2022-09-14T17:49:18.325Z,96999.19
2022-09-14T17:51:45.668Z,96994.16
2022-09-14T17:54:12.726Z,96978.53
2022-09-14T17:56:39.899Z,96974.31
2022-09-14T17:59:22.474Z,96965.56
2022-09-14T18:01:50.091Z,96983.09
2022-09-14T18:04:17.626Z,96985.47
2022-09-14T18:06:49.861Z,97001.34
2022-09-14T18:09:21.526Z,96990.25
2022-09-14T18:11:50.422Z,96997.41
2022-09-14T18:14:17.991Z,97000.81
2022-09-14T18:16:45.480Z,96996.03
2022-09-14T18:19:12.302Z,97001.88
2022-09-14T18:21:39.603Z,96997.88
2022-09-14T18:24:07.537Z,96995.50
2022-09-14T18:26:34.341Z,96989.16
2022-09-14T18:29:01.559Z,96987.59
2022-09-14T18:31:28.726Z,97009.28
2022-09-14T18:34:00.184Z,97007.72
2022-09-14T18:36:29.401Z,97016.19
2022-09-14T18:38:58.064Z,97011.44
2022-09-14T18:41:25.465Z,97019.34
2022-09-14T18:43:53.306Z,97025.69
2022-09-14T18:46:24.436Z,97025.19
2022-09-14T18:48:54.417Z,97020.69
2022-09-14T18:51:22.103Z,97025.50
2022-09-14T18:53:49.107Z,97036.06
2022-09-14T18:56:17.929Z,97035.81
2022-09-14T18:58:47.209Z,97041.13
2022-09-14T19:01:14.942Z,97028.66
2022-09-14T19:03:43.568Z,97030.50
2022-09-14T19:06:14.785Z,97025.50
2022-09-14T19:08:50.266Z,97035.31
2022-09-14T19:11:21.533Z,97033.97
2022-09-14T19:13:54.381Z,97030.81
2022-09-14T19:16:21.009Z,97021.81
2022-09-14T19:18:49.352Z,97028.94
2022-09-14T19:21:23.415Z,97011.47
2022-09-14T19:24:00.637Z,97016.78
2022-09-14T19:26:33.147Z,97018.34
2022-09-14T19:29:04.134Z,97019.72
2022-09-14T19:31:31.591Z,97011.75
2022-09-14T19:34:00.910Z,97018.09
2022-09-14T19:36:29.458Z,97028.47
2022-09-14T19:39:01.080Z,97024.75
2022-09-14T19:41:28.907Z,97031.63
2022-09-14T19:43:55.493Z,97015.78
2022-09-14T19:46:23.424Z,97025.06
2022-09-14T19:48:52.410Z,97028.50
2022-09-14T19:51:25.454Z,97032.78
2022-09-14T19:53:54.715Z,97027.97
2022-09-14T19:56:33.059Z,97029.56
2022-09-14T19:59:06.029Z,97032.22
2022-09-14T20:01:36.520Z,97029.56
2022-09-14T20:04:06.017Z,97035.91
2022-09-14T20:06:37.979Z,97050.75
2022-09-14T20:09:11.738Z,97034.56
2022-09-14T20:11:41.222Z,97033.25
2022-09-14T20:14:12.507Z,97025.84
2022-09-14T20:16:49.965Z,97035.91
2022-09-14T20:19:20.559Z,97039.31
2022-09-14T20:21:49.754Z,97032.44
2022-09-14T20:24:26.157Z,97010.97
2022-09-14T20:27:13.976Z,97026.34
2022-09-14T20:29:59.363Z,97025.03
2022-09-14T20:32:28.163Z,97014.69
2022-09-14T20:34:56.193Z,97006.72
2022-09-14T20:37:22.986Z,97014.94
2022-09-14T20:39:50.115Z,96997.50
2022-09-14T20:42:17.287Z,97016.81
2022-09-14T20:44:46.376Z,97003.06
2022-09-14T20:47:13.395Z,97002.28
2022-09-14T20:49:40.076Z,97014.22
2022-09-14T20:52:06.753Z,97021.41
2022-09-14T20:54:33.589Z,97029.63
2022-09-14T20:57:04.633Z,97025.91
2022-09-14T20:59:49.941Z,97024.84
2022-09-14T21:02:16.639Z,97019.03
2022-09-14T21:04:43.449Z,97012.16
2022-09-14T21:07:17.761Z,97024.88
2022-09-14T21:09:44.744Z,97010.06
2022-09-14T21:12:14.007Z,97009.50
2022-09-14T21:14:40.994Z,97002.06
2022-09-14T21:17:09.227Z,96997.31
2022-09-14T21:19:37.805Z,96997.84
2022-09-14T21:22:04.723Z,96985.66
2022-09-14T21:24:35.142Z,96997.84
2022-09-14T21:27:07.690Z,96992.81
2022-09-14T21:29:34.433Z,96996.78
2022-09-14T21:32:05.602Z,96989.38
2022-09-14T21:34:35.509Z,97013.22
2022-09-14T21:37:02.374Z,96998.91
2022-09-14T21:39:29.821Z,97021.97
2022-09-14T21:41:59.368Z,97015.88
2022-09-14T21:44:37.049Z,97013.50
2022-09-14T21:47:06.236Z,96990.97
2022-09-14T21:49:33.590Z,97004.78
2022-09-14T21:52:04.253Z,97011.66
2022-09-14T21:54:37.195Z,96992.31
2022-09-14T21:57:04.266Z,97010.06
2022-09-14T21:59:32.065Z,96997.91
2022-09-14T22:01:59.141Z,97012.16
2022-09-14T22:04:26.877Z,97012.16
2022-09-14T22:06:53.888Z,97021.69
2022-09-14T22:09:25.136Z,97026.47
2022-09-14T22:11:53.127Z,97019.59
2022-09-14T22:14:26.219Z,96995.50
2022-09-14T22:16:53.859Z,97022.25
2022-09-14T22:19:30.605Z,97002.13
2022-09-14T22:21:59.645Z,97007.38
2022-09-14T22:24:37.920Z,97020.13
2022-09-14T22:27:14.618Z,97003.72
2022-09-14T22:29:41.455Z,97015.88
2022-09-14T22:32:12.246Z,97018.03
2022-09-14T22:34:41.506Z,97021.97
2022-09-14T22:37:08.316Z,97020.41
2022-09-14T22:39:35.236Z,97029.41
2022-09-14T22:42:03.530Z,97041.31
2022-09-14T22:44:30.223Z,97039.72
2022-09-14T22:47:01.931Z,97026.47
2022-09-14T22:49:30.747Z,97043.44
2022-09-14T22:51:57.372Z,97033.88
2022-09-14T22:54:24.049Z,97038.94
2022-09-14T22:56:51.087Z,97034.69
2022-09-14T22:59:17.787Z,97036.28
2022-09-14T23:01:44.940Z,97044.22
2022-09-14T23:04:13.922Z,97045.81
2022-09-14T23:06:47.559Z,97046.09
2022-09-14T23:09:22.003Z,97054.00
2022-09-14T23:11:49.563Z,97048.97
2022-09-14T23:14:16.633Z,97048.19
2022-09-14T23:16:45.194Z,97041.53
2022-09-14T23:19:16.890Z,97038.09
2022-09-14T23:21:44.177Z,97042.88
2022-09-14T23:24:15.469Z,97039.97
2022-09-14T23:26:42.853Z,97032.84
2022-09-14T23:29:16.153Z,97045.81
2022-09-14T23:31:43.879Z,97030.72
2022-09-14T23:34:10.794Z,97038.09
2022-09-14T23:36:37.587Z,97035.22
2022-09-14T23:39:04.433Z,97036.53
2022-09-14T23:41:31.400Z,97033.09
2022-09-14T23:43:58.921Z,97039.16
2022-09-14T23:46:25.737Z,97031.50
2022-09-14T23:48:52.900Z,97043.13
2022-09-14T23:51:19.952Z,97033.34
2022-09-14T23:53:46.816Z,97029.13
2022-09-14T23:56:14.433Z,97030.16
2022-09-14T23:58:42.193Z,97033.88
